Baker, West Virginia
Current Conditions -  °F | °C
As of 5:50 PM on Tuesday 27 Jan 2015 (Local Time) from KW99 Reporting Station
Overcast Overcast  
Wind Chill: 18°   Ceiling: 5000
Heat Index: 25°   Visibility: 10mi
Dew Point: 10°   Wind: 6mph
Humidity: 54%   Direction: 360°N
Pressure: 29.97"   Gusts: NA
Location:  39.04°N, 78.74°W
Report Text: KW99 272250Z AUTO 36005KT 10SM OVC050 M04/M12 A2997 RMK AO2 T10391121
Loading
Personal Weather Stations






























Interactive Weather Map New forecast layout! Learn more

10-Day Weather Forecast

Advertisements
Track Severe Weather on mobile